Time;durP1;ratioP1;P1;durP2;ratioP2;P2;SDS_P1;SDS_P2;PMS_P1;PMS_P2;Temp;Humidity;BMP_temperature;BMP_pressure;BME280_temperature;BME280_humidity;BME280_pressure;Samples;Min_cycle;Max_cycle;Signal;HPM_P1;HPM_P2
2022/05/20 00:00:58;;;;;;;42.50;27.13;;;13.10;99.90;;;;;;5004281;28;36641;-78
2022/05/20 00:03:25;;;;;;;30.38;21.55;;;13.10;99.90;;;;;;4998240;28;37975;-78
2022/05/20 00:05:51;;;;;;;33.47;24.45;;;13.10;99.90;;;;;;4992068;28;36767;-78
2022/05/20 00:08:17;;;;;;;31.55;24.50;;;13.10;99.90;;;;;;4998972;28;38725;-77
2022/05/20 00:10:43;;;;;;;27.98;23.38;;;13.10;99.90;;;;;;4997902;28;37649;-77
2022/05/20 00:13:10;;;;;;;28.17;22.80;;;13.10;99.90;;;;;;4999699;28;37264;-78
2022/05/20 00:15:36;;;;;;;27.25;22.65;;;13.10;99.90;;;;;;5001863;28;35528;-77
2022/05/20 00:18:02;;;;;;;31.92;24.20;;;13.00;99.90;;;;;;5020930;28;37522;-78
2022/05/20 00:20:29;;;;;;;37.60;26.17;;;13.00;99.90;;;;;;5001175;28;38258;-78
2022/05/20 00:22:56;;;;;;;36.60;26.25;;;13.00;99.90;;;;;;5000830;28;38457;-77
2022/05/20 00:28:09;;;;;;;32.63;25.60;;;13.00;99.90;;;;;;4995077;28;39817;-77
2022/05/20 00:30:35;;;;;;;34.53;26.25;;;12.90;99.90;;;;;;5013520;28;37885;-77
2022/05/20 00:33:01;;;;;;;27.17;20.73;;;12.90;99.90;;;;;;5013538;28;37542;-77
2022/05/20 00:35:27;;;;;;;32.40;26.10;;;12.90;99.90;;;;;;4994168;28;40782;-77
2022/05/20 00:37:53;;;;;;;31.85;25.20;;;12.80;99.90;;;;;;5000197;28;38018;-78
2022/05/20 00:40:23;;;;;;;31.90;24.27;;;12.90;99.90;;;;;;4998384;28;38643;-77
2022/05/20 00:42:49;;;;;;;27.67;20.98;;;12.90;99.90;;;;;;4979394;28;37069;-77
2022/05/20 00:45:16;;;;;;;32.45;23.88;;;12.80;99.90;;;;;;5009166;28;36460;-77
2022/05/20 00:47:42;;;;;;;32.63;25.05;;;12.90;99.90;;;;;;5016303;28;39149;-78
2022/05/20 00:50:14;;;;;;;44.38;32.00;;;12.80;99.90;;;;;;5013350;28;38277;-78
2022/05/20 00:52:47;;;;;;;31.80;26.95;;;12.90;99.90;;;;;;4997601;28;37962;-77
2022/05/20 00:55:18;;;;;;;32.60;26.13;;;12.90;99.90;;;;;;5005768;28;37946;-78
2022/05/20 00:57:54;;;;;;;34.33;26.27;;;12.80;99.90;;;;;;4989626;28;39307;-78
2022/05/20 01:00:27;;;;;;;33.25;25.48;;;12.80;99.90;;;;;;4999935;28;37413;-78
2022/05/20 01:02:58;;;;;;;34.03;26.77;;;12.80;99.90;;;;;;5010763;28;38144;-78
2022/05/20 01:05:31;;;;;;;33.22;27.70;;;12.80;99.90;;;;;;5004810;28;36606;-78
2022/05/20 01:07:59;;;;;;;38.40;28.95;;;12.80;99.90;;;;;;4989486;28;38987;-78
2022/05/20 01:10:25;;;;;;;40.42;30.60;;;12.80;99.90;;;;;;4994369;28;38256;-78
2022/05/20 01:12:53;;;;;;;33.92;27.58;;;12.80;99.90;;;;;;5042385;28;36996;-77
2022/05/20 01:15:19;;;;;;;40.72;31.73;;;12.80;99.90;;;;;;5015115;28;37936;-78
2022/05/20 01:17:47;;;;;;;39.90;31.63;;;12.70;99.90;;;;;;4997108;28;40310;-78
2022/05/20 01:20:19;;;;;;;39.85;32.03;;;12.70;99.90;;;;;;5003314;28;39147;-77
2022/05/20 01:23:00;;;;;;;40.30;34.13;;;12.70;99.90;;;;;;5000076;28;38086;-77
2022/05/20 01:25:29;;;;;;;43.95;34.38;;;12.70;99.90;;;;;;5005141;28;36300;-78
2022/05/20 01:27:56;;;;;;;41.90;32.80;;;12.70;99.90;;;;;;4995005;28;38834;-78
2022/05/20 01:30:25;;;;;;;41.80;31.42;;;12.70;99.90;;;;;;4993710;28;37489;-78
2022/05/20 01:32:52;;;;;;;47.72;34.58;;;12.70;99.90;;;;;;5005674;28;38129;-77
2022/05/20 01:35:27;;;;;;;49.75;36.08;;;12.70;99.90;;;;;;5003130;28;37747;-78
2022/05/20 01:37:54;;;;;;;46.90;36.88;;;12.70;99.90;;;;;;5012486;28;37485;-78
2022/05/20 01:40:20;;;;;;;51.33;37.03;;;12.70;99.90;;;;;;5001640;28;38508;-78
2022/05/20 01:43:04;;;;;;;46.40;36.17;;;12.60;99.90;;;;;;5013405;28;35965;-78
2022/05/20 01:45:54;;;;;;;48.15;36.28;;;12.60;99.90;;;;;;4989435;28;48083;-78
2022/05/20 01:48:34;;;;;;;46.88;36.00;;;12.60;99.90;;;;;;4998923;28;38215;-78
2022/05/20 01:51:05;;;;;;;42.15;32.97;;;12.60;99.90;;;;;;5011448;28;39004;-78
2022/05/20 01:53:38;;;;;;;42.97;34.50;;;12.60;99.90;;;;;;4998871;28;48883;-78
2022/05/20 01:56:17;;;;;;;43.75;34.63;;;12.60;99.90;;;;;;4993170;28;35903;-78
2022/05/20 01:59:01;;;;;;;46.92;35.13;;;12.60;99.90;;;;;;5000442;28;39564;-78
2022/05/20 02:01:33;;;;;;;43.17;32.35;;;12.60;99.90;;;;;;4997132;28;37669;-78
2022/05/20 02:04:07;;;;;;;42.53;31.88;;;12.60;99.90;;;;;;4996182;28;38082;-77
2022/05/20 02:06:48;;;;;;;44.28;34.55;;;12.60;99.90;;;;;;4990583;28;47589;-77
2022/05/20 02:09:21;;;;;;;43.22;33.92;;;12.60;99.90;;;;;;4994400;28;39909;-78
2022/05/20 02:11:48;;;;;;;;;;;12.60;99.90;;;;;;4993788;28;39089;-78
2022/05/20 02:15:01;;;;;;;44.70;32.78;;;12.60;99.90;;;;;;4995673;28;38795;-78
2022/05/20 02:17:33;;;;;;;44.40;34.25;;;12.60;99.90;;;;;;4957372;28;48364;-78
2022/05/20 02:20:13;;;;;;;47.33;34.83;;;12.60;99.90;;;;;;5015417;28;39028;-78
2022/05/20 02:22:58;;;;;;;40.97;33.35;;;12.60;99.90;;;;;;4999529;28;47261;-78
2022/05/20 02:25:28;;;;;;;44.50;30.85;;;12.60;99.90;;;;;;4991733;28;38014;-78
2022/05/20 02:27:59;;;;;;;46.13;34.30;;;12.60;99.90;;;;;;4992693;28;37954;-79
2022/05/20 02:30:31;;;;;;;43.47;34.60;;;12.60;99.90;;;;;;4992529;28;38171;-78
2022/05/20 02:33:07;;;;;;;40.88;31.30;;;12.60;99.90;;;;;;5016328;28;37548;-78
2022/05/20 02:35:34;;;;;;;44.88;32.45;;;12.60;99.90;;;;;;4997559;28;48562;-78
2022/05/20 02:38:20;;;;;;;49.33;33.65;;;12.50;99.90;;;;;;4998079;28;37667;-78
2022/05/20 02:40:52;;;;;;;37.95;32.38;;;12.60;99.90;;;;;;4994975;28;48466;-78
2022/05/20 02:43:20;;;;;;;43.80;32.75;;;12.60;99.90;;;;;;4995302;28;38357;-78
2022/05/20 02:45:48;;;;;;;45.42;34.10;;;12.60;99.90;;;;;;4993800;28;36840;-78
2022/05/20 02:48:16;;;;;;;44.45;35.10;;;12.60;99.90;;;;;;4997323;28;36856;-78
2022/05/20 02:50:43;;;;;;;42.17;32.90;;;12.60;99.90;;;;;;4994386;28;38419;-78
2022/05/20 02:53:09;;;;;;;50.30;36.47;;;12.60;99.90;;;;;;4998662;28;36968;-78
2022/05/20 02:55:36;;;;;;;47.60;34.47;;;12.60;99.90;;;;;;4996764;28;38605;-78
2022/05/20 02:58:03;;;;;;;39.10;31.45;;;12.60;99.90;;;;;;5007472;28;36736;-78
2022/05/20 03:05:59;;;;;;;43.63;32.45;;;12.60;99.90;;;;;;5004990;28;38838;-78
2022/05/20 03:08:25;;;;;;;44.03;33.42;;;12.70;99.90;;;;;;4994397;28;38146;-78
2022/05/20 03:10:51;;;;;;;47.63;34.70;;;12.70;99.90;;;;;;4994194;28;38857;-78
2022/05/20 03:13:18;;;;;;;45.83;34.35;;;12.70;99.90;;;;;;4995767;28;38159;-77
2022/05/20 03:15:44;;;;;;;35.63;27.77;;;12.60;99.90;;;;;;5016814;28;38077;-78
2022/05/20 03:18:12;;;;;;;45.50;32.83;;;12.60;99.90;;;;;;5015023;28;37601;-77
2022/05/20 03:20:41;;;;;;;41.90;33.22;;;12.60;99.90;;;;;;5015804;28;39074;-78
2022/05/20 03:23:09;;;;;;;38.55;31.63;;;12.60;99.90;;;;;;4998547;28;39348;-78
2022/05/20 03:25:36;;;;;;;43.17;31.65;;;12.60;99.90;;;;;;5011476;28;38104;-78
2022/05/20 03:28:03;;;;;;;40.55;30.48;;;12.60;99.90;;;;;;4992654;28;38176;-78
2022/05/20 03:30:29;;;;;;;39.15;30.20;;;12.60;99.90;;;;;;4999911;28;37725;-78
2022/05/20 03:32:55;;;;;;;41.67;32.38;;;12.50;99.90;;;;;;5005244;28;39366;-78
2022/05/20 03:35:22;;;;;;;37.13;29.58;;;12.50;99.90;;;;;;5002332;28;37076;-78
2022/05/20 03:37:48;;;;;;;38.80;30.65;;;12.50;99.90;;;;;;5004459;28;37446;-78
2022/05/20 03:40:14;;;;;;;37.17;28.73;;;12.50;99.90;;;;;;5002450;28;37386;-77
2022/05/20 03:42:40;;;;;;;36.78;28.05;;;12.50;99.90;;;;;;4998692;28;38695;-77
2022/05/20 03:45:06;;;;;;;40.80;30.48;;;12.50;99.90;;;;;;4993996;28;37631;-78
2022/05/20 03:47:32;;;;;;;35.28;27.40;;;12.50;99.90;;;;;;5001495;28;37638;-78
2022/05/20 03:50:00;;;;;;;40.92;31.13;;;12.50;99.90;;;;;;4997326;28;38426;-77
2022/05/20 03:52:27;;;;;;;33.05;26.95;;;12.40;99.90;;;;;;5001642;28;41254;-77
2022/05/20 03:54:53;;;;;;;37.25;29.08;;;12.40;99.90;;;;;;5016473;28;37614;-77
2022/05/20 03:57:19;;;;;;;38.08;30.60;;;12.40;99.90;;;;;;4997522;28;37552;-77
2022/05/20 03:59:45;;;;;;;37.45;28.80;;;12.40;99.90;;;;;;5005717;28;37830;-77
2022/05/20 04:02:12;;;;;;;35.30;26.92;;;12.40;99.90;;;;;;4995588;28;37405;-78
2022/05/20 04:04:48;;;;;;;43.03;31.80;;;12.40;99.90;;;;;;4998211;28;37970;-78
2022/05/20 04:07:17;;;;;;;43.33;31.25;;;12.40;99.90;;;;;;5001020;28;36670;-76
2022/05/20 04:09:45;;;;;;;41.28;32.20;;;12.50;99.90;;;;;;4999733;28;38443;-77
2022/05/20 04:12:27;;;;;;;44.67;33.58;;;12.60;99.90;;;;;;4994038;28;38483;-77
2022/05/20 04:14:55;;;;;;;49.45;34.58;;;12.60;99.90;;;;;;4998459;28;38314;-77
2022/05/20 04:17:21;;;;;;;40.05;30.20;;;12.60;99.90;;;;;;4992474;28;36408;-78
2022/05/20 04:19:48;;;;;;;64.53;38.88;;;12.70;99.90;;;;;;4990223;28;38014;-76
2022/05/20 04:22:17;;;;;;;67.22;44.92;;;12.60;99.90;;;;;;4995996;28;38295;-78
2022/05/20 04:24:43;;;;;;;67.25;46.33;;;12.80;99.90;;;;;;4997708;28;37073;-78
2022/05/20 04:27:10;;;;;;;65.25;47.30;;;12.90;99.90;;;;;;5009826;28;35328;-78
2022/05/20 04:29:36;;;;;;;104.93;64.30;;;12.90;99.90;;;;;;4996981;28;38540;-78
2022/05/20 04:32:04;;;;;;;78.00;55.53;;;13.00;99.90;;;;;;4994826;28;37596;-78
2022/05/20 04:34:30;;;;;;;91.35;60.25;;;13.00;99.90;;;;;;5000796;28;38989;-77
2022/05/20 04:36:56;;;;;;;72.30;55.03;;;13.10;99.90;;;;;;5019296;28;36071;-77
2022/05/20 04:39:22;;;;;;;88.28;58.97;;;13.10;99.90;;;;;;4996146;28;37764;-77
2022/05/20 04:47:22;;;;;;;69.03;51.53;;;13.30;99.90;;;;;;5000423;28;38793;-80
2022/05/20 04:49:48;;;;;;;57.83;47.35;;;13.30;99.90;;;;;;5014844;28;39148;-81
2022/05/20 04:52:15;;;;;;;75.40;55.35;;;13.40;99.90;;;;;;5010622;28;37585;-80
2022/05/20 04:54:50;;;;;;;62.85;48.47;;;13.50;99.90;;;;;;4994165;28;38612;-81
2022/05/20 04:57:27;;;;;;;65.28;48.83;;;13.50;99.90;;;;;;4994834;28;37435;-79
2022/05/20 05:00:05;;;;;;;70.10;53.95;;;13.50;99.90;;;;;;4990670;28;37971;-81
2022/05/20 05:02:32;;;;;;;59.80;48.25;;;13.60;99.90;;;;;;4995267;28;48786;-81
2022/05/20 05:04:58;;;;;;;81.63;60.15;;;13.60;99.90;;;;;;4995631;28;38023;-79
2022/05/20 05:07:24;;;;;;;62.33;49.90;;;13.60;99.90;;;;;;4989891;28;36339;-80
2022/05/20 05:09:53;;;;;;;70.03;54.10;;;13.60;99.90;;;;;;5013012;28;38609;-79
2022/05/20 05:12:20;;;;;;;68.53;52.05;;;13.70;99.90;;;;;;4997241;28;37994;-79
2022/05/20 05:14:48;;;;;;;58.85;48.03;;;13.80;99.90;;;;;;4998598;28;39027;-79
2022/05/20 05:18:09;;;;;;;57.97;47.80;;;13.80;99.90;;;;;;4985909;28;37241;-77
2022/05/20 05:20:06;;;;;;;60.47;47.33;;;13.90;99.90;;;;;;4990888;28;38694;-77
2022/05/20 05:22:32;;;;;;;61.17;49.80;;;14.00;99.90;;;;;;5007888;28;35133;-78
2022/05/20 05:24:58;;;;;;;62.38;50.38;;;14.20;99.90;;;;;;4994418;28;38012;-78
2022/05/20 05:27:24;;;;;;;55.67;47.13;;;14.40;99.90;;;;;;4984400;28;36525;-78
2022/05/20 05:29:53;;;;;;;66.43;49.85;;;14.50;99.90;;;;;;5011936;28;39180;-79
2022/05/20 05:32:19;;;;;;;57.10;46.03;;;14.80;99.90;;;;;;5011816;28;37935;-82
2022/05/20 05:34:45;;;;;;;56.22;44.53;;;15.10;99.90;;;;;;4994860;28;36483;-82
2022/05/20 05:37:12;;;;;;;51.08;44.08;;;15.10;99.90;;;;;;4993648;28;37954;-83
2022/05/20 05:39:38;;;;;;;62.50;50.53;;;15.10;99.90;;;;;;5003478;28;37926;-81
2022/05/20 05:42:04;;;;;;;49.83;42.40;;;15.00;99.90;;;;;;4994599;28;37413;-78
2022/05/20 05:44:30;;;;;;;56.35;44.63;;;15.10;99.90;;;;;;4993306;28;37339;-82
2022/05/20 05:46:57;;;;;;;49.40;41.33;;;15.00;99.90;;;;;;5015668;28;36372;-82
2022/05/20 05:49:23;;;;;;;56.28;44.30;;;15.00;99.90;;;;;;4997069;28;38829;-79
2022/05/20 05:51:49;;;;;;;56.15;44.88;;;15.00;99.90;;;;;;4997726;28;39369;-78
2022/05/20 05:54:16;;;;;;;52.75;45.30;;;14.90;99.90;;;;;;5016333;28;40248;-75
2022/05/20 05:56:42;;;;;;;53.05;41.90;;;14.80;99.90;;;;;;4994790;28;37634;-76
2022/05/20 05:59:08;;;;;;;59.08;45.25;;;15.20;99.90;;;;;;4996918;28;37988;-76
2022/05/20 06:01:34;;;;;;;50.13;39.33;;;15.40;99.90;;;;;;4997176;28;38149;-76
2022/05/20 06:04:00;;;;;;;46.78;37.35;;;15.60;99.90;;;;;;4996020;28;38795;-75
2022/05/20 06:06:26;;;;;;;46.67;34.50;;;15.90;99.90;;;;;;5019118;28;46963;-76
2022/05/20 06:08:52;;;;;;;42.88;33.63;;;16.00;99.90;;;;;;5002412;28;38846;-75
2022/05/20 06:11:19;;;;;;;37.28;30.50;;;16.10;99.90;;;;;;4995971;28;38849;-76
2022/05/20 06:13:45;;;;;;;34.50;28.27;;;16.10;99.90;;;;;;5001591;28;38337;-76
2022/05/20 06:16:18;;;;;;;34.50;26.95;;;16.70;99.90;;;;;;4999972;28;38163;-76
2022/05/20 06:18:44;;;;;;;33.92;25.98;;;16.90;99.90;;;;;;4997804;28;39324;-76
2022/05/20 06:21:10;;;;;;;33.00;25.35;;;16.90;99.90;;;;;;4999769;28;38423;-76
2022/05/20 06:23:36;;;;;;;30.80;23.67;;;17.20;99.90;;;;;;4998631;28;38497;-74
2022/05/20 06:26:02;;;;;;;25.88;20.58;;;17.10;99.90;;;;;;4998872;28;36475;-74
2022/05/20 06:28:30;;;;;;;26.23;20.45;;;17.10;99.90;;;;;;4998045;28;39087;-74
2022/05/20 06:30:57;;;;;;;24.15;18.70;;;17.00;99.90;;;;;;4996572;28;38218;-75
2022/05/20 06:33:24;;;;;;;23.05;19.42;;;16.80;99.90;;;;;;4999797;28;37989;-74
2022/05/20 06:41:20;;;;;;;25.33;19.48;;;16.70;99.90;;;;;;4994096;28;39106;-74
2022/05/20 06:43:46;;;;;;;27.42;19.60;;;16.60;99.90;;;;;;5010833;28;38491;-74
2022/05/20 06:46:12;;;;;;;22.85;19.98;;;16.60;99.90;;;;;;5011371;28;38904;-75
2022/05/20 06:48:46;;;;;;;28.65;20.23;;;16.60;99.90;;;;;;5008314;28;36516;-76
2022/05/20 06:51:17;;;;;;;28.73;20.55;;;16.90;99.90;;;;;;4997773;28;38476;-75
2022/05/20 06:53:43;;;;;;;26.63;19.17;;;17.30;99.90;;;;;;5001985;28;37992;-75
2022/05/20 06:56:10;;;;;;;24.35;19.30;;;17.60;99.90;;;;;;5006436;28;36641;-75
2022/05/20 06:58:36;;;;;;;28.35;18.02;;;17.70;99.90;;;;;;5004460;28;37744;-76
2022/05/20 07:01:03;;;;;;;23.52;17.15;;;17.90;99.90;;;;;;5008174;28;37405;-75
2022/05/20 07:03:30;;;;;;;20.15;16.15;;;18.00;99.90;;;;;;4999216;28;38417;-75
2022/05/20 07:05:56;;;;;;;21.27;16.65;;;18.10;99.90;;;;;;5002843;28;38469;-75
2022/05/20 07:08:22;;;;;;;20.67;15.77;;;18.40;99.90;;;;;;4999061;28;39671;-74
2022/05/20 07:10:48;;;;;;;19.85;15.43;;;18.40;99.90;;;;;;5003833;28;39390;-73
2022/05/20 07:13:14;;;;;;;20.48;15.70;;;18.60;99.90;;;;;;5002322;28;37247;-74
2022/05/20 07:15:40;;;;;;;22.60;14.95;;;18.80;99.90;;;;;;5004957;28;38044;-73
2022/05/20 07:18:08;;;;;;;20.05;13.00;;;19.00;99.90;;;;;;5002171;28;38885;-73
2022/05/20 07:20:34;;;;;;;18.00;13.48;;;19.00;99.90;;;;;;5007975;28;38522;-74
2022/05/20 07:23:00;;;;;;;16.38;13.07;;;19.00;99.90;;;;;;5003174;28;38354;-74
2022/05/20 07:25:26;;;;;;;17.02;12.98;;;18.90;99.90;;;;;;5003632;28;37589;-73
2022/05/20 07:27:58;;;;;;;19.08;12.48;;;18.70;99.90;;;;;;5003644;28;37917;-73
2022/05/20 07:30:24;;;;;;;14.75;10.25;;;18.20;99.90;;;;;;5012791;28;37805;-74
2022/05/20 07:32:50;;;;;;;13.25;9.30;;;18.00;99.90;;;;;;5002415;28;37305;-74
2022/05/20 07:35:16;;;;;;;15.88;9.75;;;18.10;99.90;;;;;;5002311;28;38063;-75
2022/05/20 07:37:42;;;;;;;10.70;8.75;;;17.90;99.90;;;;;;5010638;28;39886;-76
2022/05/20 07:40:09;;;;;;;11.00;8.13;;;17.70;99.90;;;;;;5003784;28;38722;-74
2022/05/20 07:42:35;;;;;;;10.82;8.23;;;17.70;99.90;;;;;;5019445;28;36959;-75
2022/05/20 07:45:01;;;;;;;14.90;9.05;;;17.70;99.90;;;;;;5002128;28;37603;-74
2022/05/20 07:47:28;;;;;;;12.05;8.40;;;17.70;99.90;;;;;;5002943;28;41631;-74
2022/05/20 07:49:54;;;;;;;13.18;8.40;;;18.00;99.90;;;;;;5017971;28;38017;-75
2022/05/20 07:55:07;;;;;;;11.70;8.10;;;18.70;99.90;;;;;;4997978;28;37506;-74
2022/05/20 07:57:38;;;;;;;14.00;8.20;;;18.80;99.90;;;;;;5013953;28;39572;-74
2022/05/20 08:00:06;;;;;;;11.95;7.22;;;18.90;99.90;;;;;;4994351;28;38474;-76
2022/05/20 08:02:32;;;;;;;8.07;5.97;;;19.00;99.90;;;;;;5003186;28;38651;-74
2022/05/20 08:05:00;;;;;;;10.18;6.25;;;19.10;99.90;;;;;;5004444;28;37580;-76
2022/05/20 08:07:36;;;;;;;9.77;6.32;;;19.20;99.90;;;;;;5002007;28;38689;-75
2022/05/20 08:10:06;;;;;;;12.05;6.57;;;19.00;99.90;;;;;;5008135;28;39252;-75
2022/05/20 08:12:32;;;;;;;8.38;6.45;;;18.80;99.90;;;;;;5004343;28;37988;-75
2022/05/20 08:14:58;;;;;;;7.72;6.03;;;18.80;99.90;;;;;;5020877;28;36734;-74
2022/05/20 08:17:25;;;;;;;11.38;6.53;;;19.00;99.90;;;;;;5022877;28;38518;-75
2022/05/20 08:19:52;;;;;;;10.40;5.60;;;19.40;99.90;;;;;;5003934;28;39164;-78
2022/05/20 08:22:23;;;;;;;7.07;4.55;;;19.40;99.90;;;;;;4999492;28;37981;-74
2022/05/20 08:24:54;;;;;;;7.75;5.15;;;19.40;99.90;;;;;;5005536;28;34810;-75
2022/05/20 08:27:22;;;;;;;9.48;6.00;;;19.40;99.90;;;;;;5003039;28;40935;-77
2022/05/20 08:29:49;;;;;;;10.35;5.55;;;19.70;99.90;;;;;;5006017;28;37649;-75
2022/05/20 08:32:15;;;;;;;8.52;5.10;;;19.60;99.90;;;;;;5001260;28;38376;-75
2022/05/20 08:34:46;;;;;;;9.63;5.35;;;19.40;99.90;;;;;;5018936;28;36727;-76
2022/05/20 08:37:14;;;;;;;10.07;5.40;;;19.30;99.90;;;;;;5004363;28;38915;-74
2022/05/20 08:39:40;;;;;;;5.93;4.68;;;19.50;99.90;;;;;;4999603;28;38166;-76
2022/05/20 08:42:20;;;;;;;10.50;5.10;;;19.40;99.90;;;;;;5012715;28;37768;-76
2022/05/20 08:44:48;;;;;;;6.72;4.43;;;19.50;99.90;;;;;;5005530;28;36154;-75
2022/05/20 08:47:24;;;;;;;7.35;4.22;;;19.50;99.90;;;;;;5003074;28;38911;-75
2022/05/20 08:49:53;;;;;;;10.13;5.80;;;19.60;99.90;;;;;;5002475;28;38188;-76
2022/05/20 08:52:19;;;;;;;7.43;5.55;;;19.60;99.90;;;;;;5000709;28;37362;-77
2022/05/20 08:54:46;;;;;;;10.57;4.80;;;19.50;99.90;;;;;;4998999;28;37574;-78
2022/05/20 08:57:33;;;;;;;7.60;4.45;;;19.50;99.90;;;;;;5001141;28;39383;-78
2022/05/20 09:00:02;;;;;;;11.15;5.57;;;19.50;99.90;;;;;;5006840;28;38834;-77
2022/05/20 09:02:28;;;;;;;10.77;6.03;;;19.50;99.90;;;;;;5020301;28;47453;-76
2022/05/20 09:04:54;;;;;;;9.52;5.40;;;19.30;99.90;;;;;;5007882;28;37056;-77
2022/05/20 09:07:21;;;;;;;9.45;5.55;;;19.20;99.90;;;;;;5004026;28;38115;-78
2022/05/20 09:09:58;;;;;;;7.13;6.15;;;19.30;99.90;;;;;;5010418;28;38268;-78
2022/05/20 09:12:38;;;;;;;8.77;5.63;;;19.30;99.90;;;;;;5005355;28;38233;-78
2022/05/20 09:18:13;;;;;;;6.47;5.30;;;19.30;99.90;;;;;;5008896;28;39201;-78
2022/05/20 09:20:44;;;;;;;10.35;5.40;;;19.40;99.90;;;;;;5006972;28;48581;-77
2022/05/20 09:23:12;;;;;;;7.90;4.80;;;19.40;99.90;;;;;;5008793;28;38105;-78
2022/05/20 09:25:46;;;;;;;7.63;4.75;;;19.50;99.90;;;;;;5023477;28;37331;-78
2022/05/20 09:28:27;;;;;;;9.40;6.07;;;19.80;99.90;;;;;;5021916;28;39342;-78
2022/05/20 09:31:02;;;;;;;9.38;6.18;;;19.80;99.90;;;;;;5019910;28;38428;-78
2022/05/20 09:33:31;;;;;;;9.60;5.10;;;19.70;99.90;;;;;;5006503;28;48102;-78
2022/05/20 09:36:00;;;;;;;7.70;5.60;;;19.60;99.90;;;;;;5022029;28;37614;-78
2022/05/20 09:38:40;;;;;;;10.15;6.10;;;19.40;99.90;;;;;;5028195;28;39462;-78
2022/05/20 09:41:23;;;;;;;7.07;4.65;;;19.40;99.90;;;;;;5023483;28;38586;-79
2022/05/20 09:43:58;;;;;;;7.55;4.85;;;19.50;99.90;;;;;;5023613;28;37298;-78
2022/05/20 09:46:33;;;;;;;8.52;4.82;;;19.50;99.90;;;;;;5012720;28;36312;-79
2022/05/20 09:49:05;;;;;;;8.45;5.10;;;19.60;99.90;;;;;;5008518;28;38451;-77
2022/05/20 09:51:31;;;;;;;6.47;5.18;;;19.70;99.90;;;;;;5006137;28;48323;-79
2022/05/20 09:54:23;;;;;;;7.82;5.38;;;19.70;99.90;;;;;;5013881;28;37413;-79
2022/05/20 09:57:03;;;;;;;;;;;19.90;99.90;;;;;;5004752;28;49003;-77
2022/05/20 10:00:08;;;;;;;8.48;5.15;;;19.70;99.90;;;;;;5015368;28;47497;-80
2022/05/20 10:02:56;;;;;;;6.97;3.53;;;19.60;99.90;;;;;;5002720;28;47492;-76
2022/05/20 10:05:36;;;;;;;6.43;4.32;;;19.90;99.90;;;;;;5003388;28;37353;-81
2022/05/20 10:08:32;;;;;;;5.75;3.72;;;20.10;99.90;;;;;;5006388;28;38298;-80
2022/05/20 10:11:27;;;;;;;8.30;4.53;;;20.30;99.90;;;;;;5002732;28;38759;-80
2022/05/20 10:14:04;;;;;;;6.28;4.07;;;20.50;99.90;;;;;;5001044;28;47767;-79
2022/05/20 10:16:43;;;;;;;8.50;4.55;;;20.60;99.90;;;;;;5015531;28;47666;-80
2022/05/20 10:19:31;;;;;;;5.60;3.90;;;20.60;99.90;;;;;;4991220;28;36104;-80
2022/05/20 10:22:17;;;;;;;6.70;4.40;;;20.60;99.90;;;;;;5014951;28;37201;-79
2022/05/20 10:24:54;;;;;;;6.60;4.28;;;20.60;99.90;;;;;;5004747;28;49061;-80
2022/05/20 10:27:46;;;;;;;8.13;4.75;;;20.40;99.90;;;;;;5017423;28;37294;-79
2022/05/20 10:33:15;;;;;;;9.77;4.68;;;20.10;99.90;;;;;;4971122;28;39096;-80
2022/05/20 10:36:10;;;;;;;7.45;5.00;;;20.10;99.90;;;;;;5014584;28;37870;-79
2022/05/20 10:38:57;;;;;;;11.25;5.10;;;19.90;99.90;;;;;;4999210;28;49030;-79
2022/05/20 10:41:53;;;;;;;7.88;5.28;;;19.90;99.90;;;;;;5010301;28;35838;-80
2022/05/20 10:50:36;;;;;;;8.40;5.82;;;19.90;99.90;;;;;;5006380;28;49336;-80
2022/05/20 10:53:35;;;;;;;9.07;5.40;;;19.90;99.90;;;;;;5022415;28;35885;-80
2022/05/20 10:56:26;;;;;;;11.13;6.50;;;20.00;99.90;;;;;;5015750;28;37715;-79
2022/05/20 10:59:10;;;;;;;7.93;6.18;;;20.10;99.90;;;;;;5000396;28;47078;-76
2022/05/20 11:02:13;;;;;;;7.15;5.75;;;20.20;99.90;;;;;;5003273;28;48610;-78
2022/05/20 11:04:47;;;;;;;11.48;6.90;;;20.40;99.90;;;;;;4997521;28;47298;-87
2022/05/20 11:07:31;;;;;;;9.07;7.55;;;20.40;99.90;;;;;;5023010;28;38090;-78
2022/05/20 11:10:09;;;;;;;12.00;7.45;;;20.20;99.90;;;;;;5007741;28;38319;-76
2022/05/20 11:13:13;;;;;;;10.30;7.10;;;20.20;99.90;;;;;;5011168;28;48814;-77
2022/05/20 11:16:07;;;;;;;7.53;6.32;;;20.10;99.90;;;;;;4992108;28;47068;-74
2022/05/20 11:18:49;;;;;;;10.00;7.13;;;19.80;99.90;;;;;;5020841;28;47142;-77
2022/05/20 11:21:19;;;;;;;;;;;19.90;99.90;;;;;;5006820;28;39454;-75
2022/05/20 11:24:14;;;;;;;7.95;7.15;;;19.80;99.90;;;;;;5015156;28;37926;-79
2022/05/20 11:26:49;;;;;;;11.52;8.05;;;19.80;99.90;;;;;;5007279;28;48812;-77
2022/05/20 11:30:00;;;;;;;9.93;7.45;;;19.60;99.90;;;;;;5006346;28;39200;-76
2022/05/20 11:32:40;;;;;;;10.40;8.05;;;19.60;99.90;;;;;;4983042;28;39444;-74
2022/05/20 11:35:19;;;;;;;13.65;9.13;;;19.40;99.90;;;;;;4997688;28;39119;-75
2022/05/20 11:38:07;;;;;;;14.23;9.45;;;19.10;99.90;;;;;;5026341;28;35928;-75
2022/05/20 11:40:52;;;;;;;12.88;10.20;;;18.90;99.90;;;;;;5019264;28;48604;-75
2022/05/20 11:43:56;;;;;;;12.55;10.40;;;18.60;99.90;;;;;;5004876;28;39572;-77
2022/05/20 11:46:26;;;;;;;15.10;12.70;;;18.40;99.90;;;;;;5019326;28;37420;-79
2022/05/20 11:49:12;;;;;;;16.25;13.38;;;18.30;99.90;;;;;;4996614;28;36678;-78
2022/05/20 11:52:16;;;;;;;17.75;12.38;;;18.30;99.90;;;;;;5000291;28;47361;-77
2022/05/20 11:55:09;;;;;;;19.38;14.30;;;18.00;99.90;;;;;;4985636;28;47289;-77
2022/05/20 11:57:40;;;;;;;24.90;16.05;;;17.90;99.90;;;;;;5018133;28;47109;-80
2022/05/20 12:00:08;;;;;;;22.38;17.20;;;17.70;99.90;;;;;;5005034;28;37620;-80
2022/05/20 12:02:50;;;;;;;24.63;16.77;;;17.20;99.90;;;;;;5019656;28;39293;-82
2022/05/20 12:05:20;;;;;;;26.88;18.10;;;16.80;99.90;;;;;;5014593;28;38490;-83
2022/05/20 12:07:47;;;;;;;21.10;18.50;;;16.70;99.90;;;;;;5000541;28;37878;-81
2022/05/20 12:10:31;;;;;;;27.10;20.00;;;16.60;99.90;;;;;;5002145;28;37535;-79
2022/05/20 12:13:25;;;;;;;24.15;19.95;;;16.60;99.90;;;;;;5004364;28;38792;-79
2022/05/20 12:16:14;;;;;;;26.27;21.38;;;16.70;99.90;;;;;;4998955;28;49004;-82
2022/05/20 12:24:39;;;;;;;23.20;20.73;;;16.40;99.90;;;;;;5001529;28;49343;-79
2022/05/20 12:27:39;;;;;;;29.25;24.17;;;16.30;99.90;;;;;;5003783;28;39238;-82
2022/05/20 12:30:08;;;;;;;36.35;25.10;;;16.20;99.90;;;;;;5017276;28;37165;-83
2022/05/20 12:32:35;;;;;;;27.63;24.48;;;16.20;99.90;;;;;;5002754;28;38440;-82
2022/05/20 12:35:23;;;;;;;36.47;26.17;;;16.20;99.90;;;;;;4998097;28;38299;-84
2022/05/20 12:37:49;;;;;;;31.23;25.45;;;16.00;99.90;;;;;;5026189;28;47209;-84
2022/05/20 12:40:35;;;;;;;31.38;25.15;;;15.90;99.90;;;;;;5003586;28;36956;-85
2022/05/20 12:43:04;;;;;;;35.63;27.48;;;16.00;99.90;;;;;;5024199;28;37770;-85
2022/05/20 12:45:39;;;;;;;32.35;25.42;;;16.00;99.90;;;;;;5008836;28;47439;-85
2022/05/20 12:48:06;;;;;;;32.30;25.17;;;16.10;99.90;;;;;;5000506;28;37596;-84
2022/05/20 12:50:32;;;;;;;37.17;26.52;;;16.00;99.90;;;;;;5011856;28;37101;-85
2022/05/20 12:53:02;;;;;;;33.85;24.83;;;16.00;99.90;;;;;;5006016;28;36116;-85
2022/05/20 12:55:37;;;;;;;32.50;26.40;;;16.00;99.90;;;;;;5007471;28;39359;-85
2022/05/20 12:58:06;;;;;;;39.80;31.25;;;16.10;99.90;;;;;;5008162;28;38442;-84
2022/05/20 13:00:58;;;;;;;49.95;33.15;;;16.20;99.90;;;;;;5005033;28;37927;-87
2022/05/20 13:03:41;;;;;;;42.83;32.40;;;16.20;99.90;;;;;;5015181;28;37214;-87
2022/05/20 13:06:27;;;;;;;34.67;27.02;;;16.00;99.90;;;;;;5004532;28;37766;-87
2022/05/20 13:09:01;;;;;;;42.30;33.10;;;15.90;99.90;;;;;;5020251;28;38759;-86
2022/05/20 13:11:40;;;;;;;50.00;36.40;;;15.80;99.90;;;;;;5006852;28;48513;-87
2022/05/20 13:14:11;;;;;;;38.67;31.65;;;15.80;99.90;;;;;;5003373;28;36282;-87
2022/05/20 13:16:39;;;;;;;43.03;32.35;;;15.70;99.90;;;;;;5002230;28;38060;-80
2022/05/20 13:19:16;;;;;;;40.83;33.42;;;15.60;99.90;;;;;;5005837;28;38698;-84
2022/05/20 13:21:47;;;;;;;41.90;34.08;;;15.60;99.90;;;;;;5003512;28;39556;-86
2022/05/20 13:24:16;;;;;;;42.17;32.15;;;15.50;99.90;;;;;;5007745;28;37880;-85
2022/05/20 13:26:43;;;;;;;34.22;27.35;;;15.40;99.90;;;;;;5004658;28;38815;-85
2022/05/20 13:29:17;;;;;;;33.05;27.83;;;15.20;99.90;;;;;;5000129;28;38432;-86
2022/05/20 13:31:44;;;;;;;39.63;30.15;;;15.10;99.90;;;;;;4996839;28;37519;-84
2022/05/20 13:34:10;;;;;;;34.30;27.83;;;15.10;99.90;;;;;;5006166;28;37157;-85
2022/05/20 13:36:45;;;;;;;40.03;29.60;;;15.00;99.90;;;;;;5012212;28;39121;-86
2022/05/20 13:39:17;;;;;;;40.97;29.30;;;14.90;99.90;;;;;;5008369;28;38474;-85